createdAt,value
2017-07-07T00:00:10.036Z,937.6
2017-07-07T00:00:22.868Z,937.55
2017-07-07T00:00:35.249Z,937.55
2017-07-07T00:00:48.660Z,937.6
2017-07-07T00:01:01.052Z,937.62
2017-07-07T00:01:14.020Z,937.58
2017-07-07T00:01:26.935Z,937.58
2017-07-07T00:01:40.379Z,937.59
2017-07-07T00:01:53.818Z,937.59
2017-07-07T00:02:06.758Z,937.58
2017-07-07T00:02:19.681Z,937.59
2017-07-07T00:02:32.120Z,937.59
2017-07-07T00:02:45.640Z,937.57
2017-07-07T00:02:58.580Z,937.59
2017-07-07T00:03:11.556Z,937.59
2017-07-07T00:03:24.430Z,937.55
2017-07-07T00:03:37.941Z,937.59
2017-07-07T00:03:51.400Z,937.57
2017-07-07T00:04:04.891Z,937.55
2017-07-07T00:04:17.850Z,937.57
2017-07-07T00:04:31.279Z,937.6
2017-07-07T00:04:43.675Z,937.58
2017-07-07T00:04:57.373Z,937.59
2017-07-07T00:05:10.248Z,937.62
2017-07-07T00:05:22.628Z,937.61
2017-07-07T00:05:36.080Z,937.58
2017-07-07T00:05:49.542Z,937.58
2017-07-07T00:06:02.453Z,937.63
2017-07-07T00:06:15.375Z,937.59
2017-07-07T00:06:28.817Z,937.59
2017-07-07T00:06:41.231Z,937.59
2017-07-07T00:06:54.612Z,937.6
2017-07-07T00:07:08.098Z,937.58
2017-07-07T00:07:21.561Z,937.58
2017-07-07T00:07:35.123Z,937.58
2017-07-07T00:07:48.045Z,937.58
2017-07-07T00:08:01.454Z,937.6
2017-07-07T00:08:13.850Z,937.62
2017-07-07T00:08:26.762Z,937.57
2017-07-07T00:08:40.254Z,937.59
2017-07-07T00:08:53.764Z,937.58
2017-07-07T00:09:06.756Z,937.61
2017-07-07T00:09:19.715Z,937.58
2017-07-07T00:09:32.122Z,937.61
2017-07-07T00:09:45.600Z,937.63
2017-07-07T00:09:59.092Z,937.61
2017-07-07T00:10:11.990Z,937.62
2017-07-07T00:10:24.897Z,937.59
2017-07-07T00:10:38.414Z,937.61
2017-07-07T00:10:51.841Z,937.61
2017-07-07T00:11:05.292Z,937.59
2017-07-07T00:11:18.737Z,937.6
2017-07-07T00:11:32.177Z,937.58
2017-07-07T00:11:45.105Z,937.59
2017-07-07T00:11:58.614Z,937.61
2017-07-07T00:12:11.000Z,937.57
2017-07-07T00:12:23.340Z,937.62
2017-07-07T00:12:36.285Z,937.59
2017-07-07T00:12:49.754Z,937.61
2017-07-07T00:13:02.695Z,937.61
2017-07-07T00:13:15.672Z,937.56
2017-07-07T00:13:28.579Z,937.6
2017-07-07T00:13:41.509Z,937.55
2017-07-07T00:13:53.919Z,937.58
2017-07-07T00:14:07.441Z,937.58
2017-07-07T00:14:20.932Z,937.55
2017-07-07T00:14:33.843Z,937.58
2017-07-07T00:14:47.264Z,937.55
2017-07-07T00:15:00.134Z,937.57
2017-07-07T00:15:13.633Z,937.57
2017-07-07T00:15:27.072Z,937.55
2017-07-07T00:15:40.528Z,937.59
2017-07-07T00:15:53.395Z,937.58
2017-07-07T00:16:06.826Z,937.58
2017-07-07T00:16:19.690Z,937.58
2017-07-07T00:16:32.081Z,937.59
2017-07-07T00:16:45.530Z,937.62
2017-07-07T00:16:58.504Z,937.6
2017-07-07T00:17:11.438Z,937.61
2017-07-07T00:17:24.909Z,937.62
2017-07-07T00:17:38.336Z,937.6
2017-07-07T00:17:51.766Z,937.62
2017-07-07T00:18:05.218Z,937.61
2017-07-07T00:18:18.665Z,937.62
2017-07-07T00:18:32.108Z,937.64
2017-07-07T00:18:44.544Z,937.65
2017-07-07T00:18:58.014Z,937.64
2017-07-07T00:19:10.956Z,937.62
2017-07-07T00:19:24.366Z,937.62
2017-07-07T00:19:37.802Z,937.57
2017-07-07T00:19:50.773Z,937.6
2017-07-07T00:20:04.092Z,937.6
2017-07-07T00:20:17.564Z,937.61
2017-07-07T00:20:30.554Z,937.6
2017-07-07T00:20:43.989Z,937.62
2017-07-07T00:20:56.910Z,937.63
2017-07-07T00:21:09.249Z,937.63
2017-07-07T00:21:22.691Z,937.64
2017-07-07T00:21:35.625Z,937.63
2017-07-07T00:21:48.023Z,937.63
2017-07-07T00:22:00.993Z,937.63
2017-07-07T00:22:13.928Z,937.68
2017-07-07T00:22:25.841Z,937.63
2017-07-07T00:22:37.682Z,937.65
2017-07-07T00:22:50.053Z,937.64
2017-07-07T00:23:01.415Z,937.64
2017-07-07T00:23:12.755Z,937.64
2017-07-07T00:23:24.617Z,937.62
2017-07-07T00:23:37.565Z,937.65
2017-07-07T00:23:50.531Z,937.63
2017-07-07T00:24:02.923Z,937.63
2017-07-07T00:24:15.331Z,937.65
2017-07-07T00:24:27.709Z,937.67
2017-07-07T00:24:40.624Z,937.66
2017-07-07T00:24:54.072Z,937.63
2017-07-07T00:25:06.961Z,937.63
2017-07-07T00:25:19.862Z,937.65
2017-07-07T00:25:32.838Z,937.64
2017-07-07T00:25:45.737Z,937.64
2017-07-07T00:25:58.711Z,937.61
2017-07-07T00:26:11.614Z,937.65
2017-07-07T00:26:25.104Z,937.65
2017-07-07T00:26:38.595Z,937.62
2017-07-07T00:26:50.970Z,937.64
2017-07-07T00:27:04.393Z,937.61
2017-07-07T00:27:17.333Z,937.63
2017-07-07T00:27:30.269Z,937.63
2017-07-07T00:27:43.729Z,937.62
2017-07-07T00:27:56.073Z,937.58
2017-07-07T00:28:09.457Z,937.63
2017-07-07T00:28:22.386Z,937.6
2017-07-07T00:28:35.850Z,937.6
2017-07-07T00:28:49.305Z,937.61
2017-07-07T00:29:02.716Z,937.64
2017-07-07T00:29:15.072Z,937.65
2017-07-07T00:29:27.932Z,937.64
2017-07-07T00:29:40.845Z,937.65
2017-07-07T00:29:53.261Z,937.63
2017-07-07T00:30:05.859Z,937.65
2017-07-07T00:30:19.338Z,937.61
2017-07-07T00:30:32.228Z,937.65
2017-07-07T00:30:44.578Z,937.56
2017-07-07T00:30:57.990Z,937.61
2017-07-07T00:31:11.413Z,937.6
2017-07-07T00:31:24.332Z,937.62
2017-07-07T00:31:37.299Z,937.58
2017-07-07T00:31:50.715Z,937.62
2017-07-07T00:32:04.168Z,937.62
2017-07-07T00:32:17.596Z,937.57
2017-07-07T00:32:31.049Z,937.61
2017-07-07T00:32:43.422Z,937.62
2017-07-07T00:32:56.344Z,937.61
2017-07-07T00:33:09.285Z,937.62
2017-07-07T00:33:22.820Z,937.59
2017-07-07T00:33:35.752Z,937.62
2017-07-07T00:33:48.686Z,937.61
2017-07-07T00:34:01.656Z,937.57
2017-07-07T00:34:14.638Z,937.59
2017-07-07T00:34:27.633Z,937.59
2017-07-07T00:34:41.069Z,937.62
2017-07-07T00:34:53.969Z,937.61
2017-07-07T00:35:07.587Z,937.59
2017-07-07T00:35:19.990Z,937.6
2017-07-07T00:35:33.540Z,937.62
2017-07-07T00:35:46.491Z,937.55
2017-07-07T00:35:59.927Z,937.62
2017-07-07T00:36:13.312Z,937.61
2017-07-07T00:36:26.207Z,937.59
2017-07-07T00:36:39.691Z,937.62
2017-07-07T00:36:52.621Z,937.61
2017-07-07T00:37:05.094Z,937.6
2017-07-07T00:37:18.509Z,937.62
2017-07-07T00:37:31.962Z,937.6
2017-07-07T00:37:45.464Z,937.6
2017-07-07T00:37:58.993Z,937.59
2017-07-07T00:38:11.977Z,937.57
2017-07-07T00:38:25.379Z,937.59
2017-07-07T00:38:38.825Z,937.61
2017-07-07T00:38:52.320Z,937.55
2017-07-07T00:39:05.828Z,937.58
2017-07-07T00:39:19.257Z,937.6
2017-07-07T00:39:32.090Z,937.59
2017-07-07T00:39:45.066Z,937.59
2017-07-07T00:39:58.523Z,937.58
2017-07-07T00:40:10.891Z,937.59
2017-07-07T00:40:24.332Z,937.58
2017-07-07T00:40:37.746Z,937.58
2017-07-07T00:40:50.143Z,937.6
2017-07-07T00:41:03.060Z,937.63
2017-07-07T00:41:16.012Z,937.6
2017-07-07T00:41:29.432Z,937.6
2017-07-07T00:41:42.913Z,937.63
2017-07-07T00:41:55.781Z,937.61
2017-07-07T00:42:08.164Z,937.58
2017-07-07T00:42:21.153Z,937.57
2017-07-07T00:42:34.612Z,937.57
2017-07-07T00:42:47.463Z,937.56
2017-07-07T00:43:00.949Z,937.57
2017-07-07T00:43:14.399Z,937.56
2017-07-07T00:43:27.299Z,937.58
2017-07-07T00:43:40.769Z,937.58
2017-07-07T00:43:53.665Z,937.59
2017-07-07T00:44:05.000Z,937.55
2017-07-07T00:44:18.492Z,937.57
2017-07-07T00:44:31.401Z,937.57
2017-07-07T00:44:44.348Z,937.58
2017-07-07T00:44:56.741Z,937.58
2017-07-07T00:45:09.668Z,937.56
2017-07-07T00:45:23.106Z,937.6
2017-07-07T00:45:36.567Z,937.56
2017-07-07T00:45:50.098Z,937.59
2017-07-07T00:46:02.974Z,937.58
2017-07-07T00:46:15.912Z,937.56
2017-07-07T00:46:28.846Z,937.56
2017-07-07T00:46:42.377Z,937.57
2017-07-07T00:46:55.330Z,937.58
2017-07-07T00:47:08.258Z,937.55
2017-07-07T00:47:21.667Z,937.56
2017-07-07T00:47:34.544Z,937.54
2017-07-07T00:47:46.872Z,937.56
2017-07-07T00:48:00.354Z,937.55
2017-07-07T00:48:12.766Z,937.55
2017-07-07T00:48:25.657Z,937.58
2017-07-07T00:48:38.606Z,937.56
2017-07-07T00:48:52.053Z,937.54
2017-07-07T00:49:05.559Z,937.54
2017-07-07T00:49:19.019Z,937.55
2017-07-07T00:49:32.484Z,937.57
2017-07-07T00:49:45.890Z,937.54
2017-07-07T00:49:59.323Z,937.56
2017-07-07T00:50:13.262Z,937.57
2017-07-07T00:50:26.225Z,937.55
2017-07-07T00:50:39.675Z,937.55
2017-07-07T00:50:53.168Z,937.55
2017-07-07T00:51:06.157Z,937.56
2017-07-07T00:51:19.058Z,937.51
2017-07-07T00:51:31.966Z,937.55
2017-07-07T00:51:44.883Z,937.55
2017-07-07T00:51:58.349Z,937.54
2017-07-07T00:52:11.775Z,937.54
2017-07-07T00:52:25.245Z,937.51
2017-07-07T00:52:38.142Z,937.53
2017-07-07T00:52:50.518Z,937.53
2017-07-07T00:53:03.404Z,937.53
2017-07-07T00:53:16.816Z,937.54
2017-07-07T00:53:30.349Z,937.5
2017-07-07T00:53:42.731Z,937.49
2017-07-07T00:53:55.102Z,937.5
2017-07-07T00:54:08.038Z,937.51
2017-07-07T00:54:21.467Z,937.5
2017-07-07T00:54:34.318Z,937.5
2017-07-07T00:54:47.767Z,937.5
2017-07-07T00:55:01.260Z,937.52
2017-07-07T00:55:14.959Z,937.53
2017-07-07T00:55:28.385Z,937.52
2017-07-07T00:55:41.883Z,937.54
2017-07-07T00:55:55.317Z,937.53
2017-07-07T00:56:08.782Z,937.53
2017-07-07T00:56:21.197Z,937.54
2017-07-07T00:56:34.643Z,937.54
2017-07-07T00:56:48.096Z,937.54
2017-07-07T00:57:01.062Z,937.52
2017-07-07T00:57:13.944Z,937.55
2017-07-07T00:57:27.322Z,937.56
2017-07-07T00:57:40.766Z,937.56
2017-07-07T00:57:52.595Z,937.54
2017-07-07T00:58:05.506Z,937.57
2017-07-07T00:58:19.011Z,937.57
2017-07-07T00:58:32.488Z,937.59
2017-07-07T00:58:45.918Z,937.53
2017-07-07T00:58:59.307Z,937.56
2017-07-07T00:59:12.761Z,937.58
2017-07-07T00:59:26.203Z,937.57
2017-07-07T00:59:39.626Z,937.57
2017-07-07T00:59:52.609Z,937.6
2017-07-07T01:00:05.513Z,937.6
2017-07-07T01:00:18.099Z,937.6
2017-07-07T01:00:31.597Z,937.61
2017-07-07T01:00:44.547Z,937.58
2017-07-07T01:00:58.005Z,937.57
2017-07-07T01:01:11.488Z,937.55
2017-07-07T01:01:24.389Z,937.61
2017-07-07T01:01:37.828Z,937.63
2017-07-07T01:01:49.674Z,937.6
2017-07-07T01:02:02.536Z,937.61
2017-07-07T01:02:15.486Z,937.62
2017-07-07T01:02:28.937Z,937.58
2017-07-07T01:02:41.835Z,937.59
2017-07-07T01:02:55.287Z,937.58
2017-07-07T01:03:08.745Z,937.61
2017-07-07T01:03:22.230Z,937.55
2017-07-07T01:03:34.697Z,937.55
2017-07-07T01:03:48.179Z,937.63
2017-07-07T01:04:01.115Z,937.56
2017-07-07T01:04:14.009Z,937.6
2017-07-07T01:04:27.387Z,937.56
2017-07-07T01:04:40.868Z,937.58
2017-07-07T01:04:54.353Z,937.54
2017-07-07T01:05:06.747Z,937.56
2017-07-07T01:05:20.934Z,937.57
2017-07-07T01:05:34.395Z,937.58
2017-07-07T01:05:46.821Z,937.55
2017-07-07T01:05:59.753Z,937.6
2017-07-07T01:06:12.678Z,937.57
2017-07-07T01:06:26.072Z,937.57
2017-07-07T01:06:39.508Z,937.6
2017-07-07T01:06:52.978Z,937.63
2017-07-07T01:07:05.889Z,937.58
2017-07-07T01:07:19.384Z,937.57
2017-07-07T01:07:31.768Z,937.6
2017-07-07T01:07:43.647Z,937.61
2017-07-07T01:07:55.475Z,937.59
2017-07-07T01:08:08.425Z,937.6
2017-07-07T01:08:21.387Z,937.63
2017-07-07T01:08:34.361Z,937.62
2017-07-07T01:08:47.776Z,937.63
2017-07-07T01:09:01.221Z,937.65
2017-07-07T01:09:14.713Z,937.61
2017-07-07T01:09:27.626Z,937.58
2017-07-07T01:09:40.065Z,937.62
2017-07-07T01:09:52.969Z,937.61
2017-07-07T01:10:06.433Z,937.6
2017-07-07T01:10:18.846Z,937.63
2017-07-07T01:10:32.321Z,937.61
2017-07-07T01:10:45.783Z,937.59
2017-07-07T01:10:59.219Z,937.62
2017-07-07T01:11:12.648Z,937.61
2017-07-07T01:11:25.541Z,937.57
2017-07-07T01:11:39.006Z,937.64
2017-07-07T01:11:51.914Z,937.61
2017-07-07T01:12:05.457Z,937.64
2017-07-07T01:12:18.446Z,937.63
2017-07-07T01:12:31.342Z,937.62
2017-07-07T01:12:44.275Z,937.62
2017-07-07T01:12:57.110Z,937.61
2017-07-07T01:13:09.461Z,937.64
2017-07-07T01:13:22.418Z,937.66
2017-07-07T01:13:35.327Z,937.69
2017-07-07T01:13:48.857Z,937.69
2017-07-07T01:14:01.781Z,937.68
2017-07-07T01:14:14.712Z,937.66
2017-07-07T01:14:27.570Z,937.62
2017-07-07T01:14:40.510Z,937.68
2017-07-07T01:14:53.423Z,937.66
2017-07-07T01:15:05.865Z,937.67
2017-07-07T01:15:18.250Z,937.66
2017-07-07T01:15:31.159Z,937.7
2017-07-07T01:15:44.660Z,937.67
2017-07-07T01:15:58.161Z,937.69
2017-07-07T01:16:10.524Z,937.66
2017-07-07T01:16:24.001Z,937.69
2017-07-07T01:16:37.511Z,937.68
2017-07-07T01:16:51.004Z,937.68
2017-07-07T01:17:03.396Z,937.69
2017-07-07T01:17:16.266Z,937.69
2017-07-07T01:17:29.152Z,937.71
2017-07-07T01:17:42.582Z,937.69
2017-07-07T01:17:56.037Z,937.7
2017-07-07T01:18:09.534Z,937.69
2017-07-07T01:18:21.972Z,937.68
2017-07-07T01:18:35.470Z,937.73
2017-07-07T01:18:48.901Z,937.71
2017-07-07T01:19:02.357Z,937.67
2017-07-07T01:19:15.798Z,937.73
2017-07-07T01:19:28.646Z,937.68
2017-07-07T01:19:41.557Z,937.68
2017-07-07T01:19:54.471Z,937.71
2017-07-07T01:20:06.862Z,937.7
2017-07-07T01:20:20.366Z,937.72
2017-07-07T01:20:34.125Z,937.64
2017-07-07T01:20:47.521Z,937.71
2017-07-07T01:20:59.952Z,937.77
2017-07-07T01:21:13.344Z,937.72
2017-07-07T01:21:26.776Z,937.74
2017-07-07T01:21:39.710Z,937.72
2017-07-07T01:21:52.600Z,937.75
2017-07-07T01:22:05.494Z,937.74
2017-07-07T01:22:17.859Z,937.71
2017-07-07T01:22:29.731Z,937.74
2017-07-07T01:22:41.052Z,937.78
2017-07-07T01:22:53.455Z,937.73
2017-07-07T01:23:04.218Z,937.72
2017-07-07T01:23:16.587Z,937.73
2017-07-07T01:23:28.981Z,937.73
2017-07-07T01:23:41.865Z,937.69
2017-07-07T01:23:54.245Z,937.71
2017-07-07T01:24:07.180Z,937.69
2017-07-07T01:24:20.172Z,937.75
2017-07-07T01:24:32.596Z,937.73
2017-07-07T01:24:46.025Z,937.73
2017-07-07T01:24:58.898Z,937.7
2017-07-07T01:25:12.342Z,937.74
2017-07-07T01:25:25.218Z,937.72
2017-07-07T01:25:38.887Z,937.75
2017-07-07T01:25:52.349Z,937.7
2017-07-07T01:26:05.820Z,937.72
2017-07-07T01:26:18.778Z,937.73
2017-07-07T01:26:32.201Z,937.7
2017-07-07T01:26:44.548Z,937.7
2017-07-07T01:26:56.890Z,937.72
2017-07-07T01:27:09.746Z,937.69
2017-07-07T01:27:23.236Z,937.68
2017-07-07T01:27:36.173Z,937.73
2017-07-07T01:27:49.069Z,937.69
2017-07-07T01:28:02.030Z,937.67
2017-07-07T01:28:14.950Z,937.73
2017-07-07T01:28:28.478Z,937.73
2017-07-07T01:28:41.427Z,937.71
2017-07-07T01:28:54.289Z,937.73
2017-07-07T01:29:07.250Z,937.7
2017-07-07T01:29:20.658Z,937.73
2017-07-07T01:29:33.592Z,937.73
2017-07-07T01:29:46.987Z,937.74
2017-07-07T01:29:59.893Z,937.73
2017-07-07T01:30:12.314Z,937.76
2017-07-07T01:30:25.263Z,937.75
2017-07-07T01:30:39.009Z,937.73
2017-07-07T01:30:52.446Z,937.78
2017-07-07T01:31:05.402Z,937.74
2017-07-07T01:31:18.863Z,937.76
2017-07-07T01:31:31.777Z,937.77
2017-07-07T01:31:44.717Z,937.78
2017-07-07T01:31:58.200Z,937.73
2017-07-07T01:32:11.120Z,937.74
2017-07-07T01:32:24.541Z,937.73
2017-07-07T01:32:38.027Z,937.75
2017-07-07T01:32:50.981Z,937.76
2017-07-07T01:33:03.930Z,937.75
2017-07-07T01:33:16.830Z,937.73
2017-07-07T01:33:29.210Z,937.78
2017-07-07T01:33:41.589Z,937.78
2017-07-07T01:33:54.484Z,937.75
2017-07-07T01:34:06.390Z,937.8
2017-07-07T01:34:19.818Z,937.78
2017-07-07T01:34:32.753Z,937.8
2017-07-07T01:34:45.696Z,937.75
2017-07-07T01:34:59.170Z,937.76
2017-07-07T01:35:12.646Z,937.75
2017-07-07T01:35:26.105Z,937.81
2017-07-07T01:35:39.059Z,937.78
2017-07-07T01:35:50.881Z,937.81
2017-07-07T01:36:03.798Z,937.81
2017-07-07T01:36:16.737Z,937.79
2017-07-07T01:36:30.227Z,937.77
2017-07-07T01:36:43.682Z,937.81
2017-07-07T01:36:56.623Z,937.82
2017-07-07T01:37:07.927Z,937.83
2017-07-07T01:37:20.286Z,937.8
2017-07-07T01:37:33.168Z,937.8
2017-07-07T01:37:46.617Z,937.8
2017-07-07T01:37:59.576Z,937.83
2017-07-07T01:38:13.015Z,937.8
2017-07-07T01:38:25.932Z,937.8
2017-07-07T01:38:38.297Z,937.82
2017-07-07T01:38:50.760Z,937.83
2017-07-07T01:39:04.268Z,937.83
2017-07-07T01:39:17.717Z,937.83
2017-07-07T01:39:30.661Z,937.81
2017-07-07T01:39:44.119Z,937.82
2017-07-07T01:39:57.500Z,937.84
2017-07-07T01:40:10.429Z,937.85
2017-07-07T01:40:23.367Z,937.83
2017-07-07T01:40:35.764Z,937.83
2017-07-07T01:40:48.660Z,937.82
2017-07-07T01:41:02.117Z,937.78
2017-07-07T01:41:15.621Z,937.84
2017-07-07T01:41:29.137Z,937.79
2017-07-07T01:41:42.033Z,937.83
2017-07-07T01:41:55.455Z,937.79
2017-07-07T01:42:08.922Z,937.82
2017-07-07T01:42:21.893Z,937.82
2017-07-07T01:42:35.353Z,937.84
2017-07-07T01:42:48.258Z,937.77
2017-07-07T01:43:01.209Z,937.83
2017-07-07T01:43:14.115Z,937.79
2017-07-07T01:43:27.569Z,937.79
2017-07-07T01:43:40.745Z,937.82
2017-07-07T01:43:53.650Z,937.76
2017-07-07T01:44:07.142Z,937.77
2017-07-07T01:44:20.560Z,937.79
2017-07-07T01:44:34.036Z,937.76
2017-07-07T01:44:47.579Z,937.8
2017-07-07T01:44:59.428Z,937.78
2017-07-07T01:45:13.022Z,937.8
2017-07-07T01:45:26.474Z,937.82
2017-07-07T01:45:39.883Z,937.8
2017-07-07T01:45:52.772Z,937.78
2017-07-07T01:46:05.691Z,937.82
2017-07-07T01:46:19.109Z,937.8
2017-07-07T01:46:32.055Z,937.81
2017-07-07T01:46:45.498Z,937.78
2017-07-07T01:46:58.943Z,937.78
2017-07-07T01:47:11.303Z,937.81
2017-07-07T01:47:24.767Z,937.81
2017-07-07T01:47:37.144Z,937.82
2017-07-07T01:47:49.518Z,937.81
2017-07-07T01:48:02.473Z,937.79
2017-07-07T01:48:15.380Z,937.85
2017-07-07T01:48:28.300Z,937.83
2017-07-07T01:48:40.689Z,937.85
2017-07-07T01:48:54.121Z,937.83
2017-07-07T01:49:07.598Z,937.84
2017-07-07T01:49:20.018Z,937.82
2017-07-07T01:49:33.475Z,937.82
2017-07-07T01:49:46.923Z,937.86
2017-07-07T01:49:59.864Z,937.86
2017-07-07T01:50:13.295Z,937.83
2017-07-07T01:50:26.195Z,937.85
2017-07-07T01:50:40.607Z,937.87
2017-07-07T01:50:53.038Z,937.81
2017-07-07T01:51:05.963Z,937.87
2017-07-07T01:51:18.842Z,937.86
2017-07-07T01:51:31.754Z,937.88
2017-07-07T01:51:45.183Z,937.88
2017-07-07T01:51:57.597Z,937.88
2017-07-07T01:52:10.014Z,937.89
2017-07-07T01:52:23.478Z,937.91
2017-07-07T01:52:36.388Z,937.88
2017-07-07T01:52:48.769Z,937.88
2017-07-07T01:53:00.696Z,937.92
2017-07-07T01:53:14.184Z,937.91
2017-07-07T01:53:27.635Z,937.87
2017-07-07T01:53:41.112Z,937.91
2017-07-07T01:53:54.546Z,937.92
2017-07-07T01:54:07.484Z,937.88
2017-07-07T01:54:20.401Z,937.93
2017-07-07T01:54:33.915Z,937.9
2017-07-07T01:54:46.326Z,937.93
2017-07-07T01:54:59.785Z,937.92
2017-07-07T01:55:12.687Z,937.91
2017-07-07T01:55:26.143Z,937.92
2017-07-07T01:55:39.610Z,937.87
2017-07-07T01:55:52.567Z,937.92
2017-07-07T01:56:05.519Z,937.89
2017-07-07T01:56:18.959Z,937.88
2017-07-07T01:56:31.927Z,937.91
2017-07-07T01:56:45.385Z,937.92
2017-07-07T01:56:58.295Z,937.9
2017-07-07T01:57:11.186Z,937.9
2017-07-07T01:57:24.637Z,937.9
2017-07-07T01:57:38.072Z,937.91
2017-07-07T01:57:49.917Z,937.89
2017-07-07T01:58:02.918Z,937.88
2017-07-07T01:58:16.417Z,937.86
2017-07-07T01:58:29.861Z,937.88
2017-07-07T01:58:43.354Z,937.87
2017-07-07T01:58:56.800Z,937.87
2017-07-07T01:59:09.726Z,937.89
2017-07-07T01:59:23.202Z,937.88
2017-07-07T01:59:36.076Z,937.9
2017-07-07T01:59:49.007Z,937.87
2017-07-07T02:00:02.504Z,937.89
2017-07-07T02:00:15.955Z,937.84
2017-07-07T02:00:29.464Z,937.87
2017-07-07T02:00:42.375Z,937.89
2017-07-07T02:00:53.710Z,937.84
2017-07-07T02:01:06.571Z,937.87
2017-07-07T02:01:20.022Z,937.87
2017-07-07T02:01:33.467Z,937.87
2017-07-07T02:01:46.908Z,937.86
2017-07-07T02:02:00.396Z,937.85
2017-07-07T02:02:13.302Z,937.88
2017-07-07T02:02:26.229Z,937.84
2017-07-07T02:02:39.204Z,937.86
2017-07-07T02:02:52.099Z,937.86
2017-07-07T02:03:04.986Z,937.88
2017-07-07T02:03:18.511Z,937.88
2017-07-07T02:03:31.955Z,937.86
2017-07-07T02:03:44.324Z,937.83
2017-07-07T02:03:57.846Z,937.88
2017-07-07T02:04:11.362Z,937.84
2017-07-07T02:04:24.816Z,937.85
2017-07-07T02:04:37.911Z,937.84
2017-07-07T02:04:51.305Z,937.81
2017-07-07T02:05:03.661Z,937.82
2017-07-07T02:05:17.083Z,937.79
2017-07-07T02:05:30.499Z,937.83
2017-07-07T02:05:44.347Z,937.86
2017-07-07T02:05:57.836Z,937.85
2017-07-07T02:06:10.779Z,937.83
2017-07-07T02:06:23.134Z,937.86
2017-07-07T02:06:36.604Z,937.82
2017-07-07T02:06:50.159Z,937.85
2017-07-07T02:07:03.101Z,937.84
2017-07-07T02:07:15.960Z,937.85
2017-07-07T02:07:29.363Z,937.84
2017-07-07T02:07:42.721Z,937.85
2017-07-07T02:07:55.632Z,937.84
2017-07-07T02:08:09.092Z,937.84
2017-07-07T02:08:22.614Z,937.88
2017-07-07T02:08:35.542Z,937.84
2017-07-07T02:08:48.997Z,937.89
2017-07-07T02:09:01.938Z,937.85
2017-07-07T02:09:14.341Z,937.87
2017-07-07T02:09:26.701Z,937.87
2017-07-07T02:09:40.151Z,937.85
2017-07-07T02:09:53.079Z,937.85
2017-07-07T02:10:05.444Z,937.84
2017-07-07T02:10:18.419Z,937.89
2017-07-07T02:10:31.859Z,937.88
2017-07-07T02:10:45.543Z,937.9
2017-07-07T02:10:59.070Z,937.88
2017-07-07T02:11:12.042Z,937.89
2017-07-07T02:11:24.976Z,937.87
2017-07-07T02:11:38.352Z,937.87
2017-07-07T02:11:51.300Z,937.89
2017-07-07T02:12:03.673Z,937.9
2017-07-07T02:12:16.625Z,937.89
2017-07-07T02:12:30.143Z,937.9
2017-07-07T02:12:43.088Z,937.87
2017-07-07T02:12:56.588Z,937.89
2017-07-07T02:13:09.588Z,937.89
2017-07-07T02:13:22.488Z,937.91
2017-07-07T02:13:35.438Z,937.9
2017-07-07T02:13:48.899Z,937.9
2017-07-07T02:14:02.394Z,937.9
2017-07-07T02:14:15.856Z,937.91
2017-07-07T02:14:28.778Z,937.91
2017-07-07T02:14:42.248Z,937.9
2017-07-07T02:14:55.749Z,937.91
2017-07-07T02:15:08.649Z,937.9
2017-07-07T02:15:21.612Z,937.89
2017-07-07T02:15:35.151Z,937.89
2017-07-07T02:15:48.076Z,937.91
2017-07-07T02:16:00.463Z,937.91
2017-07-07T02:16:12.930Z,937.92
2017-07-07T02:16:25.824Z,937.87
2017-07-07T02:16:39.310Z,937.92
2017-07-07T02:16:52.732Z,937.88
2017-07-07T02:17:05.669Z,937.88
2017-07-07T02:17:18.609Z,937.87
2017-07-07T02:17:32.058Z,937.9
2017-07-07T02:17:45.488Z,937.87
2017-07-07T02:17:58.970Z,937.89
2017-07-07T02:18:11.898Z,937.87
2017-07-07T02:18:24.804Z,937.92
2017-07-07T02:18:37.212Z,937.92
2017-07-07T02:18:50.637Z,937.93
2017-07-07T02:19:04.108Z,937.93
2017-07-07T02:19:16.524Z,937.9
2017-07-07T02:19:30.001Z,937.92
2017-07-07T02:19:43.444Z,937.87
2017-07-07T02:19:56.886Z,937.92
2017-07-07T02:20:09.763Z,937.89
2017-07-07T02:20:23.176Z,937.87
2017-07-07T02:20:36.621Z,937.91
2017-07-07T02:20:49.921Z,937.91
2017-07-07T02:21:03.396Z,937.9
2017-07-07T02:21:16.869Z,937.91
2017-07-07T02:21:30.337Z,937.91
2017-07-07T02:21:43.250Z,937.91
2017-07-07T02:21:56.153Z,937.91
2017-07-07T02:22:09.105Z,937.9
2017-07-07T02:22:20.925Z,937.86
2017-07-07T02:22:32.262Z,937.9
2017-07-07T02:22:43.596Z,937.9
2017-07-07T02:22:56.007Z,937.87
2017-07-07T02:23:08.365Z,937.88
2017-07-07T02:23:19.650Z,937.87
2017-07-07T02:23:31.508Z,937.86
2017-07-07T02:23:43.946Z,937.86
2017-07-07T02:23:57.369Z,937.89
2017-07-07T02:24:10.820Z,937.88
2017-07-07T02:24:23.776Z,937.88
2017-07-07T02:24:36.190Z,937.88
2017-07-07T02:24:49.676Z,937.87
2017-07-07T02:25:02.623Z,937.88
2017-07-07T02:25:15.530Z,937.91
2017-07-07T02:25:28.426Z,937.9
2017-07-07T02:25:41.320Z,937.91
2017-07-07T02:25:54.236Z,937.86
2017-07-07T02:26:07.760Z,937.87
2017-07-07T02:26:19.622Z,937.9
2017-07-07T02:26:33.060Z,937.88
2017-07-07T02:26:46.486Z,937.89
2017-07-07T02:26:59.387Z,937.89
2017-07-07T02:27:12.322Z,937.89
2017-07-07T02:27:25.838Z,937.87
2017-07-07T02:27:39.268Z,937.9
2017-07-07T02:27:52.118Z,937.87
2017-07-07T02:28:04.983Z,937.89
2017-07-07T02:28:16.820Z,937.88
2017-07-07T02:28:29.838Z,937.87
2017-07-07T02:28:42.736Z,937.89
2017-07-07T02:28:56.205Z,937.88
2017-07-07T02:29:09.690Z,937.9
2017-07-07T02:29:23.163Z,937.9
2017-07-07T02:29:35.567Z,937.89
2017-07-07T02:29:49.117Z,937.88
2017-07-07T02:30:02.598Z,937.88
2017-07-07T02:30:15.484Z,937.83
2017-07-07T02:30:27.839Z,937.89
2017-07-07T02:30:40.782Z,937.88
2017-07-07T02:30:53.700Z,937.91
2017-07-07T02:31:06.657Z,937.88
2017-07-07T02:31:18.551Z,937.87
2017-07-07T02:31:31.420Z,937.92
2017-07-07T02:31:44.853Z,937.91
2017-07-07T02:31:58.250Z,937.89
2017-07-07T02:32:11.712Z,937.88
2017-07-07T02:32:25.095Z,937.91
2017-07-07T02:32:38.036Z,937.89
2017-07-07T02:32:51.486Z,937.93
2017-07-07T02:33:04.904Z,937.94
2017-07-07T02:33:16.768Z,937.95
2017-07-07T02:33:30.237Z,937.93
2017-07-07T02:33:43.099Z,937.92
2017-07-07T02:33:54.928Z,937.95
2017-07-07T02:34:08.353Z,937.94
2017-07-07T02:34:20.237Z,937.92
2017-07-07T02:34:32.698Z,937.98
2017-07-07T02:34:46.226Z,937.95
2017-07-07T02:34:59.672Z,937.96
2017-07-07T02:35:12.606Z,937.98
2017-07-07T02:35:25.022Z,937.98
2017-07-07T02:35:37.927Z,937.97
2017-07-07T02:35:50.837Z,937.96
2017-07-07T02:36:04.641Z,937.97
2017-07-07T02:36:18.101Z,937.99
2017-07-07T02:36:31.598Z,938
2017-07-07T02:36:44.032Z,938
2017-07-07T02:36:57.510Z,937.97
2017-07-07T02:37:10.418Z,937.95
2017-07-07T02:37:23.344Z,937.94
2017-07-07T02:37:36.325Z,937.93
2017-07-07T02:37:49.234Z,937.96
2017-07-07T02:38:02.729Z,937.96
2017-07-07T02:38:15.648Z,937.96
2017-07-07T02:38:29.112Z,937.98
2017-07-07T02:38:41.505Z,937.95
2017-07-07T02:38:55.043Z,937.97
2017-07-07T02:39:07.981Z,937.96
2017-07-07T02:39:20.979Z,937.95
2017-07-07T02:39:33.348Z,937.94
2017-07-07T02:39:46.274Z,937.95
2017-07-07T02:39:58.140Z,937.98
2017-07-07T02:40:11.053Z,937.96
2017-07-07T02:40:24.563Z,937.97
2017-07-07T02:40:36.406Z,937.95
2017-07-07T02:40:49.877Z,937.93
2017-07-07T02:41:03.341Z,937.95
2017-07-07T02:41:16.769Z,937.96
2017-07-07T02:41:29.675Z,937.91
2017-07-07T02:41:42.624Z,937.9
2017-07-07T02:41:56.098Z,937.92
2017-07-07T02:42:09.581Z,937.91
2017-07-07T02:42:22.005Z,937.9
2017-07-07T02:42:33.857Z,937.92
2017-07-07T02:42:46.820Z,937.9
2017-07-07T02:43:00.268Z,937.9
2017-07-07T02:43:13.170Z,937.87
2017-07-07T02:43:26.055Z,937.87